Time;durP1;ratioP1;P1;durP2;ratioP2;P2;SDS_P1;SDS_P2;PMS_P1;PMS_P2;Temp;Humidity;BMP_temperature;BMP_pressure;BME280_temperature;BME280_humidity;BME280_pressure;Samples;Min_cycle;Max_cycle;Signal;HPM_P1;HPM_P2
2022/03/04 00:01:50;;;;;;;22.00;13.75;;;;;;;1.96;59.02;101733.78;4988703;28;20050;-90
2022/03/04 00:04:15;;;;;;;24.15;14.10;;;;;;;1.92;59.21;101729.44;4988942;28;20045;-90
2022/03/04 00:06:40;;;;;;;22.77;14.23;;;;;;;1.81;59.02;101715.44;4982556;28;20041;-91
2022/03/04 00:09:05;;;;;;;26.65;14.48;;;;;;;1.84;59.22;101730.28;4986447;28;20047;-90
2022/03/04 00:11:31;;;;;;;25.25;15.48;;;;;;;1.84;59.28;101736.44;4979044;28;20381;-90
2022/03/04 00:13:56;;;;;;;24.17;14.40;;;;;;;1.73;59.33;101722.44;4987670;28;20038;-90
2022/03/04 00:16:21;;;;;;;24.58;14.90;;;;;;;1.78;59.71;101741.69;4984882;28;20026;-89
2022/03/04 00:19:06;;;;;;;23.83;13.98;;;;;;;1.70;59.78;101746.06;4986171;28;20041;-89
2022/03/04 00:21:31;;;;;;;;;;;;;;;1.68;58.20;101747.81;4986503;28;20829;-91
2022/03/04 00:23:56;;;;;;;24.13;13.48;;;;;;;1.57;60.24;101744.31;4984025;28;19917;-90
2022/03/04 00:26:21;;;;;;;24.83;14.57;;;;;;;1.45;60.12;101734.66;4985614;28;20038;-90
2022/03/04 00:28:47;;;;;;;25.27;14.63;;;;;;;1.45;60.62;101746.03;4984780;28;20223;-90
2022/03/04 00:31:12;;;;;;;26.08;14.98;;;;;;;1.39;61.01;101747.78;4984578;28;20486;-88
2022/03/04 00:33:37;;;;;;;24.65;14.82;;;;;;;1.33;61.21;101746.00;4985040;28;20122;-90
2022/03/04 00:36:03;;;;;;;24.42;15.32;;;;;;;1.19;61.78;101732.00;4983772;28;20054;-88
2022/03/04 00:38:28;;;;;;;27.70;16.45;;;;;;;1.11;61.62;101734.63;4985061;28;20487;-89
2022/03/04 00:40:54;;;;;;;26.15;15.55;;;;;;;1.14;61.74;101755.59;4985062;28;20042;-91
2022/03/04 00:43:19;;;;;;;27.67;16.10;;;;;;;1.07;62.47;101764.31;4986768;28;20038;-90
2022/03/04 00:45:44;;;;;;;26.20;15.82;;;;;;;1.05;62.38;101770.44;4989731;28;20080;-90
2022/03/04 00:48:10;;;;;;;24.13;15.70;;;;;;;0.98;62.55;101772.16;4981418;28;20042;-90
2022/03/04 00:50:35;;;;;;;27.25;16.40;;;;;;;0.91;62.85;101766.00;4988881;28;20053;-90
2022/03/04 00:53:02;;;;;;;23.98;15.30;;;;;;;0.78;62.70;101750.25;4988410;28;20030;-91
2022/03/04 00:55:28;;;;;;;26.92;15.10;;;;;;;0.77;63.10;101757.22;4988729;28;20399;-90
2022/03/04 00:57:53;;;;;;;28.17;16.35;;;;;;;0.76;63.49;101759.84;4984822;28;20042;-90
2022/03/04 01:00:18;;;;;;;25.90;15.32;;;;;;;0.66;63.56;101751.94;4982998;28;20026;-90
2022/03/04 01:02:43;;;;;;;29.50;16.38;;;;;;;0.56;63.97;101747.53;4987717;28;20073;-90
2022/03/04 01:05:09;;;;;;;24.80;15.43;;;;;;;0.53;64.19;101765.84;4986768;28;20526;-90
2022/03/04 01:07:34;;;;;;;25.55;15.57;;;;;;;0.52;64.38;101765.84;4987304;28;20030;-90
2022/03/04 01:09:59;;;;;;;24.95;16.27;;;;;;;0.38;64.12;101748.31;4984901;28;20039;-90
2022/03/04 01:12:24;;;;;;;30.27;16.27;;;;;;;0.44;64.13;101764.06;4986820;28;20038;-90
2022/03/04 01:14:51;;;;;;;29.65;16.30;;;;;;;0.41;64.83;101773.63;4987564;28;20791;-90
2022/03/04 01:17:17;;;;;;;26.63;16.30;;;;;;;0.35;64.69;101764.00;4981030;28;20030;-90
2022/03/04 01:19:42;;;;;;;26.65;16.08;;;;;;;0.34;65.02;101762.28;4988123;28;20030;-90
2022/03/04 01:22:07;;;;;;;25.80;15.40;;;;;;;0.32;65.27;101771.84;4986153;28;20134;-91
2022/03/04 01:24:32;;;;;;;27.65;15.95;;;;;;;0.30;65.42;101764.88;4980403;28;20464;-89
2022/03/04 01:26:58;;;;;;;26.33;16.15;;;;;;;0.23;65.76;101753.47;4985509;28;20042;-89
2022/03/04 01:29:23;;;;;;;25.48;16.83;;;;;;;0.18;66.18;101747.31;4985650;28;20068;-89
2022/03/04 01:31:48;;;;;;;24.98;15.82;;;;;;;0.15;65.75;101750.78;4985678;28;20037;-89
2022/03/04 01:34:14;;;;;;;25.73;15.55;;;;;;;0.10;65.63;101743.78;4978907;28;20048;-90
2022/03/04 01:36:39;;;;;;;27.15;16.08;;;;;;;0.10;65.94;101749.88;4984671;28;20030;-90
2022/03/04 01:39:04;;;;;;;27.80;15.82;;;;;;;0.10;66.42;101755.13;4979199;28;20110;-90
2022/03/04 01:41:30;;;;;;;27.45;16.08;;;;;;;0.07;66.20;101756.84;4987338;28;20030;-90
2022/03/04 01:43:55;;;;;;;26.85;15.88;;;;;;;0.02;66.30;101755.94;4986347;28;20037;-91
2022/03/04 01:46:27;;;;;;;26.85;16.48;;;;;;;-0.03;66.34;101751.56;4980621;28;20023;-89
2022/03/04 01:48:53;;;;;;;28.08;15.85;;;;;;;-0.07;66.97;101747.16;4989518;28;20092;-91
2022/03/04 01:51:18;;;;;;;28.38;16.52;;;;;;;-0.20;66.96;101732.25;4985489;28;20431;-90
2022/03/04 01:53:43;;;;;;;25.92;15.88;;;;;;;-0.26;67.30;101721.72;4980462;28;20098;-90
2022/03/04 01:56:09;;;;;;;31.08;17.30;;;;;;;-0.29;67.54;101735.66;4986404;28;20092;-90
2022/03/04 01:58:34;;;;;;;27.80;16.35;;;;;;;-0.34;67.40;101739.09;4984242;28;20078;-91
2022/03/04 02:01:00;;;;;;;30.48;16.92;;;;;;;-0.30;67.84;101749.59;4977597;28;20042;-90
2022/03/04 02:03:25;;;;;;;28.15;15.93;;;;;;;-0.38;67.69;101743.41;4970054;28;20026;-91
2022/03/04 02:05:50;;;;;;;30.88;17.33;;;;;;;-0.34;67.99;101760.88;4990106;28;20025;-89
2022/03/04 02:08:16;;;;;;;32.08;18.30;;;;;;;-0.46;68.26;101746.81;4986193;28;20089;-90
2022/03/04 02:10:41;;;;;;;27.83;16.90;;;;;;;-0.43;68.21;101763.44;4990253;28;20046;-90
2022/03/04 02:13:06;;;;;;;30.05;17.95;;;;;;;-0.68;68.12;101715.25;4982496;28;20118;-89
2022/03/04 02:15:32;;;;;;;27.98;16.65;;;;;;;-0.45;68.48;101756.44;4990217;28;20026;-90
2022/03/04 02:17:57;;;;;;;31.00;17.15;;;;;;;-0.56;68.76;101743.25;4975460;28;20118;-90
2022/03/04 02:20:22;;;;;;;29.75;16.77;;;;;;;-0.60;68.55;101750.19;4990451;28;20089;-90
2022/03/04 02:22:49;;;;;;;29.65;17.23;;;;;;;-0.67;69.07;101750.13;4989257;28;20030;-89
2022/03/04 02:25:14;;;;;;;33.40;17.02;;;;;;;-0.64;69.38;101755.38;4988274;28;20038;-91
2022/03/04 02:27:40;;;;;;;33.05;16.58;;;;;;;-0.80;69.08;101733.44;4984465;28;20040;-90
2022/03/04 02:30:06;;;;;;;28.05;15.52;;;;;;;-0.69;69.41;101755.34;4987333;28;20373;-90
2022/03/04 02:32:31;;;;;;;29.73;17.23;;;;;;;-0.72;69.84;101751.81;4983528;28;20431;-90
2022/03/04 02:34:57;;;;;;;30.15;17.17;;;;;;;-0.74;69.44;101754.44;4983090;28;20046;-89
2022/03/04 02:37:23;;;;;;;29.20;16.75;;;;;;;-0.89;69.42;101731.59;4986104;28;20061;-89
2022/03/04 02:39:50;;;;;;;30.55;16.17;;;;;;;-0.80;70.03;101746.50;4991014;28;20456;-90
2022/03/04 02:42:16;;;;;;;31.25;16.10;;;;;;;-0.88;70.18;101730.78;4991153;28;20041;-90
2022/03/04 02:44:41;;;;;;;29.38;16.60;;;;;;;-0.84;69.83;101736.88;4982809;28;20018;-90
2022/03/04 02:47:06;;;;;;;28.95;16.55;;;;;;;-0.86;69.82;101738.63;4983683;28;20399;-89
2022/03/04 02:49:32;;;;;;;30.15;16.15;;;;;;;-0.95;70.30;101738.53;4977260;28;20041;-90
2022/03/04 02:51:57;;;;;;;30.40;16.92;;;;;;;-0.94;70.26;101732.44;4986887;28;20034;-90
2022/03/04 02:54:22;;;;;;;28.67;15.90;;;;;;;-1.01;69.72;101734.97;4986081;28;20026;-91
2022/03/04 02:56:48;;;;;;;29.70;16.42;;;;;;;-1.19;70.88;101705.16;4982594;28;20026;-90
2022/03/04 02:59:13;;;;;;;27.38;16.20;;;;;;;-0.98;70.58;101744.59;4979589;28;20502;-89
2022/03/04 03:01:38;;;;;;;29.20;16.05;;;;;;;-0.99;70.67;101735.00;4990222;28;20070;-90
2022/03/04 03:04:04;;;;;;;32.47;17.45;;;;;;;-1.01;70.75;101729.72;4990055;28;20066;-89
2022/03/04 03:06:29;;;;;;;29.75;16.95;;;;;;;-1.06;70.43;101733.16;4981137;28;20061;-89
2022/03/04 03:08:54;;;;;;;30.88;17.10;;;;;;;-1.10;70.67;101728.78;4989779;28;20093;-91
2022/03/04 03:11:19;;;;;;;29.77;16.58;;;;;;;-1.18;70.80;101726.06;4987599;28;20081;-89
2022/03/04 03:13:45;;;;;;;27.95;16.73;;;;;;;-1.16;71.05;101734.81;4989853;28;20448;-90
2022/03/04 03:16:10;;;;;;;28.17;16.05;;;;;;;-1.20;71.31;101729.53;4984629;28;20077;-89
2022/03/04 03:18:36;;;;;;;31.77;16.65;;;;;;;-1.17;71.29;101737.38;4987348;28;20038;-90
2022/03/04 03:21:01;;;;;;;31.65;17.45;;;;;;;-1.19;71.70;101734.78;4984119;28;20117;-90
2022/03/04 03:23:27;;;;;;;30.50;17.35;;;;;;;-1.19;71.75;101732.16;4987664;28;20034;-90
2022/03/04 03:25:52;;;;;;;34.10;18.10;;;;;;;-1.21;71.73;101715.59;4980127;28;20031;-89
2022/03/04 03:28:17;;;;;;;31.55;17.45;;;;;;;-1.12;71.71;101734.00;4988439;28;20049;-89
2022/03/04 03:30:43;;;;;;;28.10;15.95;;;;;;;-1.19;71.57;101719.09;4979616;28;20022;-89
2022/03/04 03:33:08;;;;;;;29.88;17.00;;;;;;;-1.12;71.93;101736.59;4989356;28;20046;-91
2022/03/04 03:35:33;;;;;;;30.13;17.23;;;;;;;-1.15;71.70;101727.84;4988758;28;20365;-89
2022/03/04 03:37:58;;;;;;;30.58;16.65;;;;;;;-1.11;71.30;101733.13;4980014;28;20043;-89
2022/03/04 03:40:24;;;;;;;33.78;17.20;;;;;;;-1.22;71.65;101724.28;4987672;28;20030;-90
2022/03/04 03:42:49;;;;;;;32.67;17.48;;;;;;;-1.19;71.84;101739.13;4988878;28;20438;-88
2022/03/04 03:45:14;;;;;;;31.70;17.13;;;;;;;-1.17;71.63;101735.69;4982409;28;20157;-89
2022/03/04 03:47:40;;;;;;;30.13;18.55;;;;;;;-1.28;71.60;101727.69;4986839;28;20040;-89
2022/03/04 03:50:09;;;;;;;32.55;18.27;;;;;;;-1.30;71.76;101725.91;4981344;28;20023;-89
2022/03/04 03:52:34;;;;;;;36.10;17.77;;;;;;;-1.20;72.00;101738.25;4985260;28;20048;-88
2022/03/04 03:54:59;;;;;;;32.38;18.45;;;;;;;-1.22;72.07;101741.69;4989008;28;20026;-89
2022/03/04 03:57:25;;;;;;;30.92;17.85;;;;;;;-1.30;72.18;101736.38;4984338;28;20034;-88
2022/03/04 03:59:51;;;;;;;33.70;18.08;;;;;;;-1.26;72.45;101746.00;4983885;28;20041;-88
2022/03/04 04:02:16;;;;;;;34.00;17.85;;;;;;;-1.29;72.18;101740.75;4988576;28;20120;-89
2022/03/04 04:04:41;;;;;;;33.78;18.52;;;;;;;-1.37;72.15;101735.44;4987854;28;20030;-88
2022/03/04 04:07:12;;;;;;;33.75;18.75;;;;;;;-1.33;72.12;101745.06;4972305;28;20023;-90
2022/03/04 04:09:38;;;;;;;36.00;17.92;;;;;;;-1.33;72.72;101752.03;4986557;28;20061;-89
2022/03/04 04:12:04;;;;;;;36.38;18.70;;;;;;;-1.37;72.66;101745.00;4979657;28;20501;-88
2022/03/04 04:14:29;;;;;;;32.85;18.08;;;;;;;-1.38;72.74;101738.00;4978440;28;20098;-89
2022/03/04 04:16:55;;;;;;;33.33;17.70;;;;;;;-1.36;72.56;101750.25;4976102;28;20026;-88
2022/03/04 04:19:22;;;;;;;35.83;19.23;;;;;;;-1.35;72.98;101762.44;4986313;28;20062;-87
2022/03/04 04:21:47;;;;;;;33.08;18.08;;;;;;;-1.36;73.00;101759.81;4972939;28;20057;-88
2022/03/04 04:24:13;;;;;;;38.35;18.60;;;;;;;-1.47;73.24;101743.13;4987993;28;20093;-87
2022/03/04 04:26:38;;;;;;;35.60;18.23;;;;;;;-1.36;72.97;101762.44;4974770;28;20031;-88
2022/03/04 04:29:04;;;;;;;34.00;19.52;;;;;;;-1.35;72.85;101769.38;4982930;28;20060;-88
2022/03/04 04:31:31;;;;;;;31.98;17.17;;;;;;;-1.36;72.80;101762.44;4986088;28;20042;-88
2022/03/04 04:33:56;;;;;;;32.60;17.73;;;;;;;-1.55;72.66;101735.19;4985249;28;20475;-88
2022/03/04 04:36:22;;;;;;;32.75;18.15;;;;;;;-1.42;73.12;101762.31;4973313;28;20026;-87
2022/03/04 04:38:47;;;;;;;36.63;19.17;;;;;;;-1.34;73.08;101765.91;4981426;28;20076;-87
2022/03/04 04:41:12;;;;;;;33.90;17.55;;;;;;;-1.46;72.92;101739.66;4988265;28;20100;-87
2022/03/04 04:43:38;;;;;;;34.47;17.63;;;;;;;-1.36;72.60;101765.91;4980920;28;20380;-86
2022/03/04 04:46:04;;;;;;;33.95;18.58;;;;;;;-1.37;73.41;101771.13;4985320;28;20069;-87
2022/03/04 04:48:30;;;;;;;31.13;18.27;;;;;;;-1.31;72.98;101779.03;4985905;28;20389;-87
2022/03/04 04:50:59;;;;;;;35.45;18.75;;;;;;;-1.33;72.65;101767.69;4981237;28;20365;-87
2022/03/04 04:53:24;;;;;;;39.45;19.30;;;;;;;-1.37;72.98;101768.50;4987886;28;21479;-88
2022/03/04 04:55:49;;;;;;;33.17;18.77;;;;;;;-1.38;72.76;101771.97;4986062;28;20277;-87
2022/03/04 04:58:15;;;;;;;34.53;18.55;;;;;;;-1.41;73.14;101774.56;4988777;28;20026;-87
2022/03/04 05:00:40;;;;;;;33.78;18.08;;;;;;;-1.60;72.97;101756.00;4985411;28;20062;-87
2022/03/04 05:03:05;;;;;;;29.40;18.02;;;;;;;-1.54;72.69;101768.28;4986281;28;20080;-88
2022/03/04 05:05:31;;;;;;;33.40;18.83;;;;;;;-1.58;73.12;101782.16;4983468;28;20049;-87
2022/03/04 05:07:56;;;;;;;35.75;18.75;;;;;;;-1.64;73.60;101775.09;4985790;28;20030;-87
2022/03/04 05:10:21;;;;;;;33.47;17.52;;;;;;;-1.71;73.83;101764.53;4988669;28;20070;-88
2022/03/04 05:12:47;;;;;;;35.50;19.05;;;;;;;-1.68;73.17;101773.28;4991714;28;20465;-88
2022/03/04 05:15:12;;;;;;;34.05;18.20;;;;;;;-1.72;73.55;101770.63;4989985;28;20033;-88
2022/03/04 05:17:38;;;;;;;32.95;17.85;;;;;;;-1.76;74.38;101769.69;4991629;28;20113;-88
2022/03/04 05:20:04;;;;;;;36.38;17.83;;;;;;;-1.80;73.80;101767.91;4977261;28;20023;-87
2022/03/04 05:22:29;;;;;;;32.75;18.52;;;;;;;-1.82;73.76;101769.63;4990595;28;20084;-88
2022/03/04 05:24:55;;;;;;;32.95;19.20;;;;;;;-1.84;74.65;101771.31;4988327;28;20046;-88
2022/03/04 05:27:20;;;;;;;35.33;19.35;;;;;;;-1.85;74.41;101770.44;4989628;28;20025;-88
2022/03/04 05:29:45;;;;;;;34.40;18.42;;;;;;;-1.87;74.32;101776.50;4991239;28;20057;-89
2022/03/04 05:32:11;;;;;;;33.97;18.98;;;;;;;-1.94;74.14;101772.06;4990417;28;20029;-88
2022/03/04 05:34:37;;;;;;;35.03;20.17;;;;;;;-2.04;74.43;101765.81;4990387;28;20471;-88
2022/03/04 05:37:03;;;;;;;37.83;20.17;;;;;;;-2.23;74.58;101746.38;4990766;28;20087;-88
2022/03/04 05:39:29;;;;;;;35.90;20.23;;;;;;;-2.06;75.22;101784.03;4972228;28;20053;-88
2022/03/04 05:41:54;;;;;;;35.97;20.20;;;;;;;-2.04;74.75;101790.19;4988605;28;20077;-88
2022/03/04 05:44:19;;;;;;;35.58;20.33;;;;;;;-2.03;74.91;101781.50;4989243;28;20034;-87
2022/03/04 05:46:45;;;;;;;38.22;20.38;;;;;;;-2.02;74.94;101783.22;4976601;28;20046;-88
2022/03/04 05:49:10;;;;;;;34.28;20.23;;;;;;;-2.00;75.12;101780.66;4971473;28;20476;-87
2022/03/04 05:51:36;;;;;;;41.38;21.35;;;;;;;-1.96;75.18;101789.44;4987486;28;20080;-88
2022/03/04 05:54:01;;;;;;;34.00;21.00;;;;;;;-1.92;75.11;101793.81;4990691;28;20502;-88
2022/03/04 05:56:26;;;;;;;38.47;21.38;;;;;;;-1.92;75.43;101791.19;4987886;28;20093;-86
2022/03/04 05:58:52;;;;;;;32.85;19.20;;;;;;;-1.87;75.17;101807.81;4989774;28;20053;-87
2022/03/04 06:01:17;;;;;;;36.13;20.52;;;;;;;-1.97;75.05;101793.75;4988832;28;20118;-86
2022/03/04 06:03:43;;;;;;;39.58;21.17;;;;;;;-1.87;75.13;101810.44;4989512;28;20030;-88
2022/03/04 06:06:13;;;;;;;36.70;21.33;;;;;;;-1.85;75.14;101819.16;4985670;28;20066;-87
2022/03/04 06:08:38;;;;;;;40.97;21.30;;;;;;;-1.85;74.85;101814.81;4982460;28;20365;-88
2022/03/04 06:11:06;;;;;;;35.65;20.42;;;;;;;-1.94;75.12;101804.22;4981911;28;20089;-87
2022/03/04 06:13:31;;;;;;;36.17;19.80;;;;;;;-1.85;74.99;101816.53;4990075;28;20031;-87
2022/03/04 06:15:57;;;;;;;36.42;19.80;;;;;;;-1.93;74.69;101807.72;4984423;28;20535;-88
2022/03/04 06:18:22;;;;;;;38.05;20.35;;;;;;;-1.94;74.50;101808.56;4980866;28;20031;-88
2022/03/04 06:20:47;;;;;;;37.05;19.20;;;;;;;-1.87;75.24;101819.13;4986779;28;20030;-88
2022/03/04 06:23:13;;;;;;;36.65;20.13;;;;;;;-1.87;74.99;101821.75;4989440;28;20105;-88
2022/03/04 06:25:39;;;;;;;38.25;20.25;;;;;;;-1.89;74.91;101806.91;4986257;28;20439;-88
2022/03/04 06:28:04;;;;;;;37.53;19.88;;;;;;;-1.84;75.15;101815.69;4989666;28;20035;-88
2022/03/04 06:30:32;;;;;;;37.08;19.70;;;;;;;-1.89;75.05;101802.56;4990907;28;20104;-87
2022/03/04 06:35:43;;;;;;;32.42;18.33;;;;;;;-1.80;75.02;101821.00;4984803;28;20041;-89
2022/03/04 06:38:09;;;;;;;36.88;19.88;;;;;;;-1.80;75.45;101825.31;4983366;28;20030;-88
2022/03/04 06:40:35;;;;;;;38.08;20.85;;;;;;;-1.79;75.18;101825.34;4986320;28;20117;-89
2022/03/04 06:43:00;;;;;;;36.72;20.58;;;;;;;-1.83;75.53;101822.69;4986771;28;20061;-88
2022/03/04 06:45:26;;;;;;;37.15;20.25;;;;;;;-1.72;75.50;101836.75;4982718;28;20367;-89
2022/03/04 06:47:51;;;;;;;36.30;20.90;;;;;;;-1.71;75.54;101830.69;4989167;28;20034;-89
2022/03/04 06:50:17;;;;;;;39.65;20.88;;;;;;;-1.62;74.83;101819.50;4986000;28;20023;-88
2022/03/04 06:52:43;;;;;;;37.95;20.58;;;;;;;-1.44;75.16;101838.03;4989376;28;20026;-87
2022/03/04 06:55:09;;;;;;;36.97;19.98;;;;;;;-1.33;74.55;101825.16;4987703;28;20026;-87
2022/03/04 06:57:34;;;;;;;34.00;20.25;;;;;;;-1.16;73.51;101826.25;4977575;28;20122;-88
2022/03/04 07:00:00;;;;;;;36.17;20.00;;;;;;;-1.06;73.39;101832.47;4987816;28;20117;-87
2022/03/04 07:02:25;;;;;;;36.80;19.73;;;;;;;-1.01;73.28;101849.06;4986847;28;20165;-88
2022/03/04 07:04:50;;;;;;;34.42;18.40;;;;;;;-1.03;73.17;101845.56;4989068;28;20034;-89
2022/03/04 07:07:15;;;;;;;35.35;18.88;;;;;;;-1.07;73.30;101847.25;4984928;28;20022;-88
2022/03/04 07:09:41;;;;;;;37.88;20.80;;;;;;;-1.07;73.59;101855.09;4969893;28;20031;-88
2022/03/04 07:12:06;;;;;;;36.30;19.38;;;;;;;-1.04;73.52;101865.59;4984962;28;20050;-88
2022/03/04 07:14:32;;;;;;;37.42;19.85;;;;;;;-1.01;73.80;101868.22;4986934;28;20038;-88
2022/03/04 07:16:57;;;;;;;35.00;19.60;;;;;;;-1.01;73.33;101867.34;4988745;28;20030;-88
2022/03/04 07:19:22;;;;;;;32.72;18.25;;;;;;;-1.08;73.40;101858.56;4987804;28;20507;-88
2022/03/04 07:21:48;;;;;;;39.15;20.33;;;;;;;-0.94;73.46;101871.81;4985959;28;20062;-88
2022/03/04 07:24:13;;;;;;;36.17;19.20;;;;;;;-0.91;73.47;101877.09;4981005;28;20022;-89
2022/03/04 07:26:38;;;;;;;33.40;18.73;;;;;;;-0.93;73.36;101876.16;4980816;28;20542;-89
2022/03/04 07:29:03;;;;;;;40.00;20.10;;;;;;;-0.90;73.34;101877.97;4983026;28;20375;-88
2022/03/04 07:31:29;;;;;;;37.83;19.77;;;;;;;-0.85;73.14;101876.28;4987110;28;20030;-89
2022/03/04 07:33:54;;;;;;;37.70;20.20;;;;;;;-0.86;73.76;101880.63;4985791;28;20276;-89
2022/03/04 07:36:19;;;;;;;34.03;19.10;;;;;;;-0.85;73.18;101866.69;4978904;28;20050;-90
2022/03/04 07:38:45;;;;;;;40.58;20.98;;;;;;;-0.89;73.21;101859.66;4979123;28;20476;-90
2022/03/04 07:41:10;;;;;;;37.13;19.73;;;;;;;-0.80;73.28;101872.84;4983216;28;20076;-89
2022/03/04 07:43:35;;;;;;;36.67;19.67;;;;;;;-0.86;73.76;101869.31;4989635;28;20034;-89
2022/03/04 07:46:00;;;;;;;36.72;20.17;;;;;;;-0.79;73.00;101876.38;4982366;28;20026;-90
2022/03/04 07:48:27;;;;;;;36.42;18.75;;;;;;;-0.78;73.15;101868.53;4981801;28;20046;-89
2022/03/04 07:50:52;;;;;;;34.60;18.88;;;;;;;-0.78;73.12;101860.69;4986301;28;20101;-91
2022/03/04 07:53:18;;;;;;;36.15;19.85;;;;;;;-0.82;73.32;101861.50;4986086;28;20498;-90
2022/03/04 07:55:43;;;;;;;39.60;20.00;;;;;;;-0.66;73.01;101874.78;4985041;28;20538;-90
2022/03/04 07:58:08;;;;;;;37.17;19.63;;;;;;;-0.62;73.03;101874.81;4988495;28;20045;-90
2022/03/04 08:00:33;;;;;;;35.35;19.40;;;;;;;-0.59;72.97;101868.72;4983896;28;20057;-89
2022/03/04 08:02:59;;;;;;;32.53;18.83;;;;;;;-0.48;73.05;101876.72;4988485;28;20038;-91
2022/03/04 08:05:24;;;;;;;39.20;19.67;;;;;;;-0.51;73.02;101878.41;4977218;28;20045;-91
2022/03/04 08:07:50;;;;;;;39.88;20.60;;;;;;;-0.40;72.89;101888.13;4978005;28;20023;-90
2022/03/04 08:10:15;;;;;;;36.72;19.13;;;;;;;-0.32;72.04;101895.22;4972481;28;20039;-89
2022/03/04 08:12:41;;;;;;;37.95;20.58;;;;;;;-0.28;71.74;101886.53;4984082;28;20023;-90
2022/03/04 08:15:10;;;;;;;35.88;19.73;;;;;;;-0.24;72.22;101884.81;4982888;28;20212;-91
2022/03/04 08:17:35;;;;;;;37.25;19.88;;;;;;;-0.10;71.93;101895.41;4980198;28;20045;-90
2022/03/04 08:20:01;;;;;;;38.50;19.48;;;;;;;0.00;71.41;101894.66;4974781;28;20463;-90
2022/03/04 08:22:26;;;;;;;35.05;19.42;;;;;;;0.09;71.23;101891.25;4969022;28;20439;-89
2022/03/04 08:24:51;;;;;;;39.88;20.30;;;;;;;0.10;70.77;101872.06;4976483;28;20780;-91
2022/03/04 08:27:17;;;;;;;32.58;18.52;;;;;;;0.31;69.48;101887.94;4982643;28;20143;-90
2022/03/04 08:29:42;;;;;;;30.15;16.85;;;;;;;0.42;68.59;101888.91;4985612;28;20464;-91
2022/03/04 08:32:08;;;;;;;38.65;18.75;;;;;;;0.51;68.84;101880.25;4981685;28;20110;-92
2022/03/04 08:34:34;;;;;;;33.10;17.95;;;;;;;0.53;68.55;101888.97;4973336;28;20198;-90
2022/03/04 08:36:59;;;;;;;32.60;18.45;;;;;;;0.72;68.17;101900.47;4975568;28;20167;-87
2022/03/04 08:39:24;;;;;;;34.33;19.48;;;;;;;0.77;67.47;101895.25;4978897;28;20361;-89
2022/03/04 08:41:49;;;;;;;32.90;19.70;;;;;;;0.82;66.98;101902.25;4973919;28;20038;-93
2022/03/04 08:44:15;;;;;;;34.97;18.40;;;;;;;0.84;66.88;101889.19;4980219;28;20027;-93
2022/03/04 08:46:40;;;;;;;32.70;17.65;;;;;;;0.94;66.63;101902.34;4991783;28;20045;-94
2022/03/04 08:49:05;;;;;;;32.05;18.02;;;;;;;1.08;65.92;101915.50;4989026;28;20026;-93
2022/03/04 08:51:31;;;;;;;31.73;18.13;;;;;;;1.10;65.32;101907.66;4978275;28;20038;-93
2022/03/04 08:53:57;;;;;;;32.60;18.40;;;;;;;1.22;65.52;101912.97;4981518;28;20475;-92
2022/03/04 08:56:22;;;;;;;37.65;19.20;;;;;;;1.36;65.63;101915.66;4985301;28;20320;-92
2022/03/04 08:58:48;;;;;;;35.55;18.50;;;;;;;1.52;64.54;101930.59;4989667;28;20038;-93
2022/03/04 09:01:13;;;;;;;31.48;18.55;;;;;;;1.63;64.19;101925.34;4989662;28;20041;-93
2022/03/04 09:03:39;;;;;;;30.52;18.20;;;;;;;1.66;63.18;101905.25;4977514;28;20045;-93
2022/03/04 09:06:04;;;;;;;32.70;18.65;;;;;;;1.85;63.27;101908.81;4986557;28;20467;-94
2022/03/04 09:08:29;;;;;;;33.95;18.63;;;;;;;2.16;62.62;101922.84;4989151;28;20038;-93
2022/03/04 09:10:55;;;;;;;35.33;18.58;;;;;;;2.61;61.57;101909.72;4988995;28;20046;-93
2022/03/04 09:13:20;;;;;;;29.38;17.75;;;;;;;3.65;59.52;101909.41;4975282;28;20022;-92
2022/03/04 09:15:46;;;;;;;29.13;17.58;;;;;;;5.04;54.51;101902.13;4982122;28;20026;-92
2022/03/04 09:18:11;;;;;;;32.28;17.70;;;;;;;6.53;50.43;101914.16;4979774;28;20038;-93
2022/03/04 09:20:36;;;;;;;31.60;17.40;;;;;;;7.99;46.88;101905.03;4988622;28;20034;-91
2022/03/04 09:23:02;;;;;;;27.40;16.45;;;;;;;9.26;44.33;101909.75;4985434;28;20026;-89
2022/03/04 09:25:28;;;;;;;30.90;17.55;;;;;;;9.91;41.10;101874.16;4984763;28;20037;-88
2022/03/04 09:27:53;;;;;;;29.00;16.95;;;;;;;10.73;39.95;101897.16;4983086;28;20148;-89
2022/03/04 09:30:18;;;;;;;28.67;17.13;;;;;;;11.46;37.96;101901.63;4988825;28;20046;-89
2022/03/04 09:32:44;;;;;;;27.50;17.13;;;;;;;12.01;36.96;101890.66;4980563;28;20423;-89
2022/03/04 09:35:10;;;;;;;26.95;17.23;;;;;;;12.73;35.48;101876.97;4983821;28;20034;-89
2022/03/04 09:37:35;;;;;;;26.67;18.05;;;;;;;13.22;34.12;101889.03;4982598;28;20471;-87
2022/03/04 09:40:03;;;;;;;27.23;17.48;;;;;;;13.88;33.21;101877.94;4977261;28;20041;-90
2022/03/04 09:42:28;;;;;;;28.58;18.13;;;;;;;15.08;32.24;101878.13;4985065;28;20383;-89
2022/03/04 09:44:53;;;;;;;26.85;17.98;;;;;;;15.67;30.42;101876.69;4987292;28;20076;-89
2022/03/04 09:47:21;;;;;;;24.83;17.83;;;;;;;16.05;30.31;101869.19;4987499;28;20050;-87
2022/03/04 09:49:46;;;;;;;26.65;17.75;;;;;;;16.38;28.74;101866.31;4988426;28;20494;-89
2022/03/04 09:52:12;;;;;;;23.52;17.75;;;;;;;16.76;27.83;101878.47;4991729;28;20034;-89
2022/03/04 09:54:37;;;;;;;26.77;17.55;;;;;;;17.02;28.00;101864.31;4986140;28;20061;-94
2022/03/04 09:57:03;;;;;;;24.52;17.23;;;;;;;17.57;27.17;101881.50;4987703;28;20042;-88
2022/03/04 09:59:28;;;;;;;22.25;16.85;;;;;;;17.92;26.39;101868.47;4981539;28;20065;-91
2022/03/04 10:01:58;;;;;;;24.48;17.02;;;;;;;18.29;26.05;101880.38;4971351;28;20548;-85
2022/03/04 10:04:28;;;;;;;25.83;17.92;;;;;;;18.62;25.99;101885.31;4979046;28;20034;-84
2022/03/04 10:06:53;;;;;;;23.30;16.58;;;;;;;18.80;25.01;101877.84;4980998;28;20089;-88
2022/03/04 10:09:42;;;;;;;25.00;17.15;;;;;;;19.57;27.62;101885.94;4986369;28;20030;-88
2022/03/04 10:12:08;;;;;;;24.55;17.33;;;;;;;19.86;23.42;101879.28;4979179;28;20035;-87
2022/03/04 10:14:34;;;;;;;24.75;17.33;;;;;;;20.07;22.91;101881.38;4980470;28;20030;-89
2022/03/04 10:16:59;;;;;;;22.98;16.90;;;;;;;19.79;23.44;101880.72;4983894;28;20466;-86
2022/03/04 10:19:25;;;;;;;26.10;17.83;;;;;;;19.65;23.06;101878.16;4975731;28;20058;-86
2022/03/04 10:21:56;;;;;;;22.08;17.30;;;;;;;19.88;23.60;101874.63;4985644;28;20140;-88
2022/03/04 10:24:21;;;;;;;23.77;17.02;;;;;;;20.02;22.72;101881.72;4981993;28;20038;-87
2022/03/04 10:26:47;;;;;;;23.37;16.50;;;;;;;20.16;23.00;101875.28;4986779;28;20121;-85
2022/03/04 10:29:18;;;;;;;24.80;17.92;;;;;;;20.97;22.88;101885.31;4983519;28;20281;-87
2022/03/04 10:32:05;;;;;;;24.95;17.25;;;;;;;21.78;23.05;101891.50;4980941;28;20030;-84
2022/03/04 10:34:42;;;;;;;24.98;17.45;;;;;;;21.85;22.37;101880.03;4981836;28;20038;-83
2022/03/04 10:37:07;;;;;;;25.65;17.83;;;;;;;22.04;20.81;101884.81;4985611;28;20034;-85
2022/03/04 10:39:32;;;;;;;23.83;18.30;;;;;;;22.06;20.50;101884.69;4982600;28;20041;-84
2022/03/04 10:41:58;;;;;;;26.83;17.95;;;;;;;22.62;20.79;101862.81;4986013;28;20472;-83
2022/03/04 10:44:24;;;;;;;23.95;17.58;;;;;;;23.00;19.42;101858.66;4982307;28;20451;-84
2022/03/04 10:46:58;;;;;;;22.77;17.15;;;;;;;23.78;20.12;101879.72;4974501;28;20457;-84
2022/03/04 10:49:25;;;;;;;23.27;17.00;;;;;;;23.56;18.86;101877.19;4970370;28;20448;-83
2022/03/04 10:51:50;;;;;;;21.48;16.45;;;;;;;23.34;18.48;101878.25;4984459;28;20050;-82
2022/03/04 10:54:18;;;;;;;22.08;16.95;;;;;;;23.19;18.78;101877.75;4979703;28;20035;-82
2022/03/04 10:56:55;;;;;;;27.33;17.88;;;;;;;23.38;19.92;101868.00;4987078;28;20027;-85
2022/03/04 10:59:22;;;;;;;21.70;16.92;;;;;;;23.19;18.46;101876.88;4971575;28;20113;-84
2022/03/04 11:01:49;;;;;;;21.38;15.57;;;;;;;23.64;17.79;101881.94;4977699;28;20042;-83
2022/03/04 11:04:19;;;;;;;24.67;16.73;;;;;;;23.34;18.40;101873.69;4981115;28;20121;-82
2022/03/04 11:06:46;;;;;;;21.48;16.13;;;;;;;23.83;18.07;101874.75;4981497;28;20113;-84
2022/03/04 11:09:17;;;;;;;21.20;15.57;;;;;;;24.16;18.42;101860.91;4969180;28;20050;-82